sensor_id;sensor_type;location;lat;lon;timestamp;P1;durP1;ratioP1;P2;durP2;ratioP2
5612;SDS011;63463;53.586;9.928;2022-10-30T00:02:14;30.37;;;13.70;;
5612;SDS011;63463;53.586;9.928;2022-10-30T00:04:40;30.10;;;13.23;;
5612;SDS011;63463;53.586;9.928;2022-10-30T00:07:06;29.13;;;14.63;;
5612;SDS011;63463;53.586;9.928;2022-10-30T00:09:33;29.63;;;13.27;;
5612;SDS011;63463;53.586;9.928;2022-10-30T00:11:59;27.20;;;13.60;;
5612;SDS011;63463;53.586;9.928;2022-10-30T00:14:25;31.30;;;12.97;;
5612;SDS011;63463;53.586;9.928;2022-10-30T00:16:51;21.80;;;14.13;;
5612;SDS011;63463;53.586;9.928;2022-10-30T00:19:17;22.90;;;12.10;;
5612;SDS011;63463;53.586;9.928;2022-10-30T00:21:43;27.70;;;13.57;;
5612;SDS011;63463;53.586;9.928;2022-10-30T00:24:10;28.17;;;14.60;;
5612;SDS011;63463;53.586;9.928;2022-10-30T00:26:43;33.30;;;13.23;;
5612;SDS011;63463;53.586;9.928;2022-10-30T00:29:16;26.33;;;13.90;;
5612;SDS011;63463;53.586;9.928;2022-10-30T00:31:58;29.07;;;13.50;;
5612;SDS011;63463;53.586;9.928;2022-10-30T00:34:27;33.57;;;13.50;;
5612;SDS011;63463;53.586;9.928;2022-10-30T00:37:00;23.63;;;13.17;;
5612;SDS011;63463;53.586;9.928;2022-10-30T00:39:37;25.20;;;13.07;;
5612;SDS011;63463;53.586;9.928;2022-10-30T00:42:14;27.57;;;13.87;;
5612;SDS011;63463;53.586;9.928;2022-10-30T00:47:29;31.90;;;16.57;;
5612;SDS011;63463;53.586;9.928;2022-10-30T00:52:32;48.20;;;22.43;;
5612;SDS011;63463;53.586;9.928;2022-10-30T00:55:01;65.83;;;29.90;;
5612;SDS011;63463;53.586;9.928;2022-10-30T00:57:28;69.17;;;31.17;;
5612;SDS011;63463;53.586;9.928;2022-10-30T00:59:57;61.70;;;30.00;;
5612;SDS011;63463;53.586;9.928;2022-10-30T01:02:23;73.73;;;33.07;;
5612;SDS011;63463;53.586;9.928;2022-10-30T01:04:50;67.83;;;30.03;;
5612;SDS011;63463;53.586;9.928;2022-10-30T01:07:18;84.90;;;32.80;;
5612;SDS011;63463;53.586;9.928;2022-10-30T01:09:46;79.37;;;34.87;;
5612;SDS011;63463;53.586;9.928;2022-10-30T01:12:15;78.10;;;32.80;;
5612;SDS011;63463;53.586;9.928;2022-10-30T01:14:51;72.83;;;33.20;;
5612;SDS011;63463;53.586;9.928;2022-10-30T01:20:06;84.60;;;37.20;;
5612;SDS011;63463;53.586;9.928;2022-10-30T01:22:49;63.40;;;32.70;;
5612;SDS011;63463;53.586;9.928;2022-10-30T01:30:12;85.70;;;35.70;;
5612;SDS011;63463;53.586;9.928;2022-10-30T01:32:44;73.23;;;33.83;;
5612;SDS011;63463;53.586;9.928;2022-10-30T01:35:22;74.57;;;33.50;;
5612;SDS011;63463;53.586;9.928;2022-10-30T01:38:14;68.87;;;33.10;;
5612;SDS011;63463;53.586;9.928;2022-10-30T01:40:45;66.90;;;30.50;;
5612;SDS011;63463;53.586;9.928;2022-10-30T01:43:11;71.73;;;31.03;;
5612;SDS011;63463;53.586;9.928;2022-10-30T01:53:23;62.73;;;29.10;;
5612;SDS011;63463;53.586;9.928;2022-10-30T01:56:04;62.37;;;27.07;;
5612;SDS011;63463;53.586;9.928;2022-10-30T02:01:27;56.97;;;23.90;;
5612;SDS011;63463;53.586;9.928;2022-10-30T02:03:57;47.13;;;23.83;;
5612;SDS011;63463;53.586;9.928;2022-10-30T02:06:23;44.10;;;23.37;;
5612;SDS011;63463;53.586;9.928;2022-10-30T02:08:49;41.70;;;23.43;;
5612;SDS011;63463;53.586;9.928;2022-10-30T02:11:15;44.93;;;24.30;;
5612;SDS011;63463;53.586;9.928;2022-10-30T02:13:44;43.63;;;21.53;;
5612;SDS011;63463;53.586;9.928;2022-10-30T02:16:10;47.53;;;22.93;;
5612;SDS011;63463;53.586;9.928;2022-10-30T02:18:57;40.60;;;21.03;;
5612;SDS011;63463;53.586;9.928;2022-10-30T02:21:23;51.27;;;21.07;;
5612;SDS011;63463;53.586;9.928;2022-10-30T02:23:51;40.10;;;20.67;;
5612;SDS011;63463;53.586;9.928;2022-10-30T02:26:17;44.70;;;21.60;;
5612;SDS011;63463;53.586;9.928;2022-10-30T02:28:49;40.83;;;19.70;;
5612;SDS011;63463;53.586;9.928;2022-10-30T02:31:17;34.00;;;18.80;;
5612;SDS011;63463;53.586;9.928;2022-10-30T02:33:47;43.83;;;20.40;;
5612;SDS011;63463;53.586;9.928;2022-10-30T02:36:13;30.13;;;17.80;;
5612;SDS011;63463;53.586;9.928;2022-10-30T02:38:39;33.03;;;17.70;;
5612;SDS011;63463;53.586;9.928;2022-10-30T02:41:09;30.70;;;16.77;;
5612;SDS011;63463;53.586;9.928;2022-10-30T02:43:35;34.93;;;16.97;;
5612;SDS011;63463;53.586;9.928;2022-10-30T02:46:06;33.83;;;16.73;;
5612;SDS011;63463;53.586;9.928;2022-10-30T02:48:32;25.93;;;15.90;;
5612;SDS011;63463;53.586;9.928;2022-10-30T02:51:02;33.10;;;15.50;;
5612;SDS011;63463;53.586;9.928;2022-10-30T02:53:32;25.43;;;15.20;;
5612;SDS011;63463;53.586;9.928;2022-10-30T02:56:02;29.67;;;15.90;;
5612;SDS011;63463;53.586;9.928;2022-10-30T02:58:30;38.87;;;14.47;;
5612;SDS011;63463;53.586;9.928;2022-10-30T03:00:56;30.60;;;15.37;;
5612;SDS011;63463;53.586;9.928;2022-10-30T03:03:23;29.97;;;15.43;;
5612;SDS011;63463;53.586;9.928;2022-10-30T03:06:01;29.57;;;16.33;;
5612;SDS011;63463;53.586;9.928;2022-10-30T03:08:27;28.10;;;14.67;;
5612;SDS011;63463;53.586;9.928;2022-10-30T03:11:09;28.87;;;15.47;;
5612;SDS011;63463;53.586;9.928;2022-10-30T03:13:35;32.53;;;15.53;;
5612;SDS011;63463;53.586;9.928;2022-10-30T03:16:06;30.80;;;15.00;;
5612;SDS011;63463;53.586;9.928;2022-10-30T03:18:37;34.97;;;16.00;;
5612;SDS011;63463;53.586;9.928;2022-10-30T03:21:04;27.73;;;13.60;;
5612;SDS011;63463;53.586;9.928;2022-10-30T03:23:30;28.43;;;14.30;;
5612;SDS011;63463;53.586;9.928;2022-10-30T03:25:59;19.17;;;12.53;;
5612;SDS011;63463;53.586;9.928;2022-10-30T03:28:33;29.20;;;14.90;;
5612;SDS011;63463;53.586;9.928;2022-10-30T03:31:00;22.23;;;13.80;;
5612;SDS011;63463;53.586;9.928;2022-10-30T03:33:27;21.70;;;12.60;;
5612;SDS011;63463;53.586;9.928;2022-10-30T03:35:58;29.03;;;13.57;;
5612;SDS011;63463;53.586;9.928;2022-10-30T03:38:25;23.03;;;12.83;;
5612;SDS011;63463;53.586;9.928;2022-10-30T03:40:54;26.57;;;13.70;;
5612;SDS011;63463;53.586;9.928;2022-10-30T03:43:20;28.97;;;13.03;;
5612;SDS011;63463;53.586;9.928;2022-10-30T03:45:47;23.80;;;11.80;;
5612;SDS011;63463;53.586;9.928;2022-10-30T03:48:13;21.47;;;12.90;;
5612;SDS011;63463;53.586;9.928;2022-10-30T03:50:43;23.97;;;12.90;;
5612;SDS011;63463;53.586;9.928;2022-10-30T03:53:09;20.67;;;11.77;;
5612;SDS011;63463;53.586;9.928;2022-10-30T03:55:56;25.37;;;12.40;;
5612;SDS011;63463;53.586;9.928;2022-10-30T03:58:23;31.23;;;11.90;;
5612;SDS011;63463;53.586;9.928;2022-10-30T04:00:49;29.93;;;13.63;;
5612;SDS011;63463;53.586;9.928;2022-10-30T04:03:15;25.00;;;12.60;;
5612;SDS011;63463;53.586;9.928;2022-10-30T04:05:41;26.27;;;11.63;;
5612;SDS011;63463;53.586;9.928;2022-10-30T04:08:21;27.43;;;11.50;;
5612;SDS011;63463;53.586;9.928;2022-10-30T04:10:47;20.17;;;11.13;;
5612;SDS011;63463;53.586;9.928;2022-10-30T04:13:13;16.80;;;10.90;;
5612;SDS011;63463;53.586;9.928;2022-10-30T04:15:43;26.97;;;11.13;;
5612;SDS011;63463;53.586;9.928;2022-10-30T04:18:13;25.67;;;11.37;;
5612;SDS011;63463;53.586;9.928;2022-10-30T04:20:40;19.07;;;11.33;;
5612;SDS011;63463;53.586;9.928;2022-10-30T04:23:12;22.73;;;11.83;;
5612;SDS011;63463;53.586;9.928;2022-10-30T04:25:39;20.97;;;11.27;;
5612;SDS011;63463;53.586;9.928;2022-10-30T04:28:05;25.40;;;12.00;;
5612;SDS011;63463;53.586;9.928;2022-10-30T04:30:31;36.33;;;11.83;;
5612;SDS011;63463;53.586;9.928;2022-10-30T04:32:59;22.37;;;11.90;;
5612;SDS011;63463;53.586;9.928;2022-10-30T04:35:26;24.57;;;12.40;;
5612;SDS011;63463;53.586;9.928;2022-10-30T04:37:56;22.30;;;11.00;;
5612;SDS011;63463;53.586;9.928;2022-10-30T04:40:23;19.97;;;11.70;;
5612;SDS011;63463;53.586;9.928;2022-10-30T04:42:50;24.47;;;10.77;;
5612;SDS011;63463;53.586;9.928;2022-10-30T04:45:16;24.10;;;12.13;;
5612;SDS011;63463;53.586;9.928;2022-10-30T04:47:42;18.50;;;10.27;;
5612;SDS011;63463;53.586;9.928;2022-10-30T04:50:08;25.73;;;12.00;;
5612;SDS011;63463;53.586;9.928;2022-10-30T04:52:34;25.27;;;12.13;;
5612;SDS011;63463;53.586;9.928;2022-10-30T04:55:00;19.00;;;11.07;;
5612;SDS011;63463;53.586;9.928;2022-10-30T04:57:26;22.57;;;11.60;;
5612;SDS011;63463;53.586;9.928;2022-10-30T04:59:52;31.83;;;11.93;;
5612;SDS011;63463;53.586;9.928;2022-10-30T05:02:18;28.47;;;11.83;;
5612;SDS011;63463;53.586;9.928;2022-10-30T05:04:44;19.37;;;10.30;;
5612;SDS011;63463;53.586;9.928;2022-10-30T05:07:10;21.83;;;10.60;;
5612;SDS011;63463;53.586;9.928;2022-10-30T05:09:37;18.93;;;10.53;;
5612;SDS011;63463;53.586;9.928;2022-10-30T05:12:04;20.70;;;11.80;;
5612;SDS011;63463;53.586;9.928;2022-10-30T05:14:30;24.73;;;11.63;;
5612;SDS011;63463;53.586;9.928;2022-10-30T05:16:56;17.97;;;11.07;;
5612;SDS011;63463;53.586;9.928;2022-10-30T05:19:22;21.07;;;11.40;;
5612;SDS011;63463;53.586;9.928;2022-10-30T05:21:48;18.27;;;10.70;;
5612;SDS011;63463;53.586;9.928;2022-10-30T05:24:14;22.80;;;10.77;;
5612;SDS011;63463;53.586;9.928;2022-10-30T05:26:40;18.03;;;10.77;;
5612;SDS011;63463;53.586;9.928;2022-10-30T05:29:06;13.90;;;10.00;;
5612;SDS011;63463;53.586;9.928;2022-10-30T05:31:32;28.27;;;11.47;;
5612;SDS011;63463;53.586;9.928;2022-10-30T05:33:58;16.57;;;10.10;;
5612;SDS011;63463;53.586;9.928;2022-10-30T05:36:24;21.83;;;11.17;;
5612;SDS011;63463;53.586;9.928;2022-10-30T05:38:50;26.60;;;11.40;;
5612;SDS011;63463;53.586;9.928;2022-10-30T05:41:16;15.33;;;10.40;;
5612;SDS011;63463;53.586;9.928;2022-10-30T05:43:42;23.50;;;11.00;;
5612;SDS011;63463;53.586;9.928;2022-10-30T05:46:08;20.73;;;9.70;;
5612;SDS011;63463;53.586;9.928;2022-10-30T05:48:34;17.70;;;10.80;;
5612;SDS011;63463;53.586;9.928;2022-10-30T05:51:00;21.80;;;10.80;;
5612;SDS011;63463;53.586;9.928;2022-10-30T05:53:26;19.20;;;9.93;;
5612;SDS011;63463;53.586;9.928;2022-10-30T05:55:56;22.90;;;10.77;;
5612;SDS011;63463;53.586;9.928;2022-10-30T05:58:22;33.10;;;10.93;;
5612;SDS011;63463;53.586;9.928;2022-10-30T06:00:48;28.63;;;10.27;;
5612;SDS011;63463;53.586;9.928;2022-10-30T06:03:13;19.73;;;10.33;;
5612;SDS011;63463;53.586;9.928;2022-10-30T06:05:40;18.57;;;10.20;;
5612;SDS011;63463;53.586;9.928;2022-10-30T06:08:08;21.93;;;11.93;;
5612;SDS011;63463;53.586;9.928;2022-10-30T06:10:34;18.40;;;10.23;;
5612;SDS011;63463;53.586;9.928;2022-10-30T06:13:02;15.07;;;9.80;;
5612;SDS011;63463;53.586;9.928;2022-10-30T06:15:28;16.40;;;9.87;;
5612;SDS011;63463;53.586;9.928;2022-10-30T06:17:54;16.93;;;10.27;;
5612;SDS011;63463;53.586;9.928;2022-10-30T06:20:23;19.50;;;10.57;;
5612;SDS011;63463;53.586;9.928;2022-10-30T06:25:23;16.43;;;9.23;;
5612;SDS011;63463;53.586;9.928;2022-10-30T06:27:49;18.07;;;9.47;;
5612;SDS011;63463;53.586;9.928;2022-10-30T06:30:16;18.33;;;9.83;;
5612;SDS011;63463;53.586;9.928;2022-10-30T06:32:41;20.40;;;10.10;;
5612;SDS011;63463;53.586;9.928;2022-10-30T06:35:08;23.40;;;9.50;;
5612;SDS011;63463;53.586;9.928;2022-10-30T06:37:34;22.53;;;11.10;;
5612;SDS011;63463;53.586;9.928;2022-10-30T06:40:00;18.77;;;11.00;;
5612;SDS011;63463;53.586;9.928;2022-10-30T06:42:26;19.37;;;9.70;;
5612;SDS011;63463;53.586;9.928;2022-10-30T06:44:52;15.87;;;10.70;;
5612;SDS011;63463;53.586;9.928;2022-10-30T06:47:18;18.00;;;10.27;;
5612;SDS011;63463;53.586;9.928;2022-10-30T06:49:44;17.33;;;9.67;;
5612;SDS011;63463;53.586;9.928;2022-10-30T06:52:10;21.70;;;10.50;;
5612;SDS011;63463;53.586;9.928;2022-10-30T06:54:36;18.70;;;10.33;;
5612;SDS011;63463;53.586;9.928;2022-10-30T06:57:02;21.43;;;9.77;;
5612;SDS011;63463;53.586;9.928;2022-10-30T06:59:27;21.17;;;10.47;;
5612;SDS011;63463;53.586;9.928;2022-10-30T07:01:53;29.57;;;10.90;;
5612;SDS011;63463;53.586;9.928;2022-10-30T07:04:21;15.90;;;10.17;;
5612;SDS011;63463;53.586;9.928;2022-10-30T07:06:47;22.73;;;11.20;;
5612;SDS011;63463;53.586;9.928;2022-10-30T07:09:13;25.77;;;10.80;;
5612;SDS011;63463;53.586;9.928;2022-10-30T07:11:40;18.63;;;9.93;;
5612;SDS011;63463;53.586;9.928;2022-10-30T07:14:09;28.13;;;11.60;;
5612;SDS011;63463;53.586;9.928;2022-10-30T07:16:36;21.67;;;10.43;;
5612;SDS011;63463;53.586;9.928;2022-10-30T07:19:02;33.07;;;11.33;;
5612;SDS011;63463;53.586;9.928;2022-10-30T07:21:28;18.27;;;10.33;;
5612;SDS011;63463;53.586;9.928;2022-10-30T07:23:55;25.73;;;10.77;;
5612;SDS011;63463;53.586;9.928;2022-10-30T07:26:21;32.57;;;11.20;;
5612;SDS011;63463;53.586;9.928;2022-10-30T07:28:47;19.70;;;10.03;;
5612;SDS011;63463;53.586;9.928;2022-10-30T07:31:13;29.37;;;11.90;;
5612;SDS011;63463;53.586;9.928;2022-10-30T07:33:39;20.83;;;10.77;;
5612;SDS011;63463;53.586;9.928;2022-10-30T07:36:05;27.03;;;11.90;;
5612;SDS011;63463;53.586;9.928;2022-10-30T07:38:31;21.50;;;10.53;;
5612;SDS011;63463;53.586;9.928;2022-10-30T07:40:57;18.77;;;11.47;;
5612;SDS011;63463;53.586;9.928;2022-10-30T07:43:23;24.90;;;10.97;;
5612;SDS011;63463;53.586;9.928;2022-10-30T07:45:49;22.73;;;12.47;;
5612;SDS011;63463;53.586;9.928;2022-10-30T07:48:15;26.40;;;11.53;;
5612;SDS011;63463;53.586;9.928;2022-10-30T07:50:42;35.10;;;10.20;;
5612;SDS011;63463;53.586;9.928;2022-10-30T07:53:08;21.63;;;11.13;;
5612;SDS011;63463;53.586;9.928;2022-10-30T07:58:26;27.40;;;11.00;;
5612;SDS011;63463;53.586;9.928;2022-10-30T08:00:52;42.93;;;11.67;;
5612;SDS011;63463;53.586;9.928;2022-10-30T08:03:18;32.53;;;11.47;;
5612;SDS011;63463;53.586;9.928;2022-10-30T08:05:47;20.93;;;10.40;;
5612;SDS011;63463;53.586;9.928;2022-10-30T08:08:13;26.60;;;10.43;;
5612;SDS011;63463;53.586;9.928;2022-10-30T08:10:40;17.67;;;10.20;;
5612;SDS011;63463;53.586;9.928;2022-10-30T08:13:07;20.37;;;11.27;;
5612;SDS011;63463;53.586;9.928;2022-10-30T08:15:38;28.97;;;10.97;;
5612;SDS011;63463;53.586;9.928;2022-10-30T08:18:04;19.40;;;9.93;;
5612;SDS011;63463;53.586;9.928;2022-10-30T08:20:30;25.27;;;10.13;;
5612;SDS011;63463;53.586;9.928;2022-10-30T08:22:56;21.13;;;10.83;;
5612;SDS011;63463;53.586;9.928;2022-10-30T08:25:24;29.77;;;11.23;;
5612;SDS011;63463;53.586;9.928;2022-10-30T08:27:55;21.07;;;8.70;;
5612;SDS011;63463;53.586;9.928;2022-10-30T08:30:23;28.40;;;11.07;;
5612;SDS011;63463;53.586;9.928;2022-10-30T08:32:50;19.03;;;10.13;;
5612;SDS011;63463;53.586;9.928;2022-10-30T08:35:16;28.10;;;10.80;;
5612;SDS011;63463;53.586;9.928;2022-10-30T08:37:42;21.60;;;9.40;;
5612;SDS011;63463;53.586;9.928;2022-10-30T08:40:09;30.43;;;10.60;;
5612;SDS011;63463;53.586;9.928;2022-10-30T08:42:36;13.70;;;9.47;;
5612;SDS011;63463;53.586;9.928;2022-10-30T08:45:02;20.27;;;9.90;;
5612;SDS011;63463;53.586;9.928;2022-10-30T08:47:28;24.43;;;10.27;;
5612;SDS011;63463;53.586;9.928;2022-10-30T08:49:54;26.10;;;9.03;;
5612;SDS011;63463;53.586;9.928;2022-10-30T08:52:20;16.97;;;9.00;;
5612;SDS011;63463;53.586;9.928;2022-10-30T08:54:46;17.43;;;9.53;;
5612;SDS011;63463;53.586;9.928;2022-10-30T08:57:14;16.50;;;9.90;;
5612;SDS011;63463;53.586;9.928;2022-10-30T08:59:40;21.30;;;9.80;;
5612;SDS011;63463;53.586;9.928;2022-10-30T09:02:07;29.17;;;9.80;;
5612;SDS011;63463;53.586;9.928;2022-10-30T09:04:33;19.53;;;9.60;;
5612;SDS011;63463;53.586;9.928;2022-10-30T09:06:59;21.90;;;9.77;;
5612;SDS011;63463;53.586;9.928;2022-10-30T09:09:25;31.40;;;10.67;;
5612;SDS011;63463;53.586;9.928;2022-10-30T09:11:51;22.17;;;9.00;;
5612;SDS011;63463;53.586;9.928;2022-10-30T09:14:17;16.07;;;9.17;;
5612;SDS011;63463;53.586;9.928;2022-10-30T09:16:45;20.33;;;8.57;;
5612;SDS011;63463;53.586;9.928;2022-10-30T09:22:06;21.03;;;8.50;;
5612;SDS011;63463;53.586;9.928;2022-10-30T09:24:33;15.10;;;8.67;;
5612;SDS011;63463;53.586;9.928;2022-10-30T09:27:04;23.60;;;9.60;;
5612;SDS011;63463;53.586;9.928;2022-10-30T09:29:30;19.47;;;10.33;;
5612;SDS011;63463;53.586;9.928;2022-10-30T09:31:57;26.10;;;9.70;;
5612;SDS011;63463;53.586;9.928;2022-10-30T09:34:23;28.40;;;9.90;;
5612;SDS011;63463;53.586;9.928;2022-10-30T09:36:49;17.87;;;9.80;;
5612;SDS011;63463;53.586;9.928;2022-10-30T09:39:15;14.37;;;8.10;;
5612;SDS011;63463;53.586;9.928;2022-10-30T09:53:24;22.00;;;8.33;;
5612;SDS011;63463;53.586;9.928;2022-10-30T10:00:20;41.57;;;10.40;;
5612;SDS011;63463;53.586;9.928;2022-10-30T10:05:43;17.10;;;9.43;;
5612;SDS011;63463;53.586;9.928;2022-10-30T10:08:13;26.07;;;8.90;;
5612;SDS011;63463;53.586;9.928;2022-10-30T10:10:42;17.37;;;7.90;;
5612;SDS011;63463;53.586;9.928;2022-10-30T10:13:13;19.77;;;8.73;;
5612;SDS011;63463;53.586;9.928;2022-10-30T10:15:44;23.33;;;9.03;;
5612;SDS011;63463;53.586;9.928;2022-10-30T10:18:45;15.83;;;8.67;;
5612;SDS011;63463;53.586;9.928;2022-10-30T10:21:09;26.90;;;9.20;;
5612;SDS011;63463;53.586;9.928;2022-10-30T10:23:48;20.70;;;10.20;;
5612;SDS011;63463;53.586;9.928;2022-10-30T10:45:26;27.73;;;10.73;;
5612;SDS011;63463;53.586;9.928;2022-10-30T10:50:46;23.37;;;9.27;;
5612;SDS011;63463;53.586;9.928;2022-10-30T10:53:23;21.60;;;8.60;;
5612;SDS011;63463;53.586;9.928;2022-10-30T10:58:54;17.90;;;8.07;;
5612;SDS011;63463;53.586;9.928;2022-10-30T11:01:36;18.03;;;8.63;;
5612;SDS011;63463;53.586;9.928;2022-10-30T11:04:04;23.33;;;9.83;;
5612;SDS011;63463;53.586;9.928;2022-10-30T11:06:37;16.67;;;8.60;;
5612;SDS011;63463;53.586;9.928;2022-10-30T11:12:05;17.30;;;8.17;;
5612;SDS011;63463;53.586;9.928;2022-10-30T11:14:34;19.70;;;8.93;;
5612;SDS011;63463;53.586;9.928;2022-10-30T11:17:12;18.73;;;9.23;;
5612;SDS011;63463;53.586;9.928;2022-10-30T11:19:50;26.13;;;9.07;;
5612;SDS011;63463;53.586;9.928;2022-10-30T11:24:55;16.70;;;8.07;;
5612;SDS011;63463;53.586;9.928;2022-10-30T11:27:32;20.23;;;8.27;;
5612;SDS011;63463;53.586;9.928;2022-10-30T11:30:01;15.90;;;8.40;;
5612;SDS011;63463;53.586;9.928;2022-10-30T11:32:30;16.70;;;8.67;;
5612;SDS011;63463;53.586;9.928;2022-10-30T11:37:35;29.80;;;8.77;;
5612;SDS011;63463;53.586;9.928;2022-10-30T11:42:28;24.20;;;9.03;;
5612;SDS011;63463;53.586;9.928;2022-10-30T11:44:56;18.47;;;7.93;;
5612;SDS011;63463;53.586;9.928;2022-10-30T11:47:26;20.23;;;7.77;;
5612;SDS011;63463;53.586;9.928;2022-10-30T11:49:56;18.87;;;7.83;;
5612;SDS011;63463;53.586;9.928;2022-10-30T11:52:25;16.23;;;6.70;;
5612;SDS011;63463;53.586;9.928;2022-10-30T11:54:56;20.07;;;7.50;;
5612;SDS011;63463;53.586;9.928;2022-10-30T11:57:27;15.23;;;7.43;;
5612;SDS011;63463;53.586;9.928;2022-10-30T11:59:58;25.50;;;8.33;;
5612;SDS011;63463;53.586;9.928;2022-10-30T12:02:25;20.33;;;9.07;;
5612;SDS011;63463;53.586;9.928;2022-10-30T12:04:52;18.93;;;8.23;;
5612;SDS011;63463;53.586;9.928;2022-10-30T12:07:19;26.73;;;8.27;;
5612;SDS011;63463;53.586;9.928;2022-10-30T12:09:50;20.47;;;8.73;;
5612;SDS011;63463;53.586;9.928;2022-10-30T12:14:45;22.20;;;8.07;;
5612;SDS011;63463;53.586;9.928;2022-10-30T12:17:13;23.27;;;8.90;;
5612;SDS011;63463;53.586;9.928;2022-10-30T12:19:44;26.27;;;8.97;;
5612;SDS011;63463;53.586;9.928;2022-10-30T12:22:31;20.13;;;7.50;;
5612;SDS011;63463;53.586;9.928;2022-10-30T12:24:58;19.40;;;8.00;;
5612;SDS011;63463;53.586;9.928;2022-10-30T12:27:24;23.43;;;8.47;;
5612;SDS011;63463;53.586;9.928;2022-10-30T12:32:20;23.60;;;9.00;;
5612;SDS011;63463;53.586;9.928;2022-10-30T12:37:21;12.63;;;8.03;;
5612;SDS011;63463;53.586;9.928;2022-10-30T12:42:15;30.13;;;6.97;;
5612;SDS011;63463;53.586;9.928;2022-10-30T12:50:18;26.03;;;8.03;;
5612;SDS011;63463;53.586;9.928;2022-10-30T12:52:48;17.77;;;7.00;;
5612;SDS011;63463;53.586;9.928;2022-10-30T12:55:31;21.27;;;8.63;;
5612;SDS011;63463;53.586;9.928;2022-10-30T13:03:33;15.43;;;8.20;;
5612;SDS011;63463;53.586;9.928;2022-10-30T13:06:04;23.27;;;7.70;;
5612;SDS011;63463;53.586;9.928;2022-10-30T13:11:16;16.43;;;8.07;;
5612;SDS011;63463;53.586;9.928;2022-10-30T13:13:46;18.40;;;8.30;;
5612;SDS011;63463;53.586;9.928;2022-10-30T13:16:29;18.10;;;7.77;;
5612;SDS011;63463;53.586;9.928;2022-10-30T13:18:56;16.50;;;7.67;;
5612;SDS011;63463;53.586;9.928;2022-10-30T13:21:29;27.67;;;9.17;;
5612;SDS011;63463;53.586;9.928;2022-10-30T13:24:01;21.03;;;9.03;;
5612;SDS011;63463;53.586;9.928;2022-10-30T13:26:29;21.80;;;7.90;;
5612;SDS011;63463;53.586;9.928;2022-10-30T13:31:35;35.47;;;8.70;;
5612;SDS011;63463;53.586;9.928;2022-10-30T13:34:10;20.20;;;8.00;;
5612;SDS011;63463;53.586;9.928;2022-10-30T13:36:53;30.50;;;9.23;;
5612;SDS011;63463;53.586;9.928;2022-10-30T13:46:57;18.77;;;8.50;;
5612;SDS011;63463;53.586;9.928;2022-10-30T13:52:05;14.73;;;7.40;;
5612;SDS011;63463;53.586;9.928;2022-10-30T13:54:36;17.33;;;8.30;;
5612;SDS011;63463;53.586;9.928;2022-10-30T14:08:19;21.37;;;7.40;;
5612;SDS011;63463;53.586;9.928;2022-10-30T14:13:06;13.10;;;7.40;;
5612;SDS011;63463;53.586;9.928;2022-10-30T14:15:33;19.83;;;7.30;;
5612;SDS011;63463;53.586;9.928;2022-10-30T14:20:40;15.93;;;7.13;;
5612;SDS011;63463;53.586;9.928;2022-10-30T14:25:33;17.80;;;8.37;;
5612;SDS011;63463;53.586;9.928;2022-10-30T14:27:59;23.40;;;8.97;;
5612;SDS011;63463;53.586;9.928;2022-10-30T14:30:25;23.93;;;8.27;;
5612;SDS011;63463;53.586;9.928;2022-10-30T14:32:52;17.90;;;7.93;;
5612;SDS011;63463;53.586;9.928;2022-10-30T14:35:28;24.20;;;9.33;;
5612;SDS011;63463;53.586;9.928;2022-10-30T14:37:56;16.80;;;7.10;;
5612;SDS011;63463;53.586;9.928;2022-10-30T14:40:31;16.23;;;8.70;;
5612;SDS011;63463;53.586;9.928;2022-10-30T14:43:01;15.73;;;7.20;;
5612;SDS011;63463;53.586;9.928;2022-10-30T14:45:33;16.87;;;7.83;;
5612;SDS011;63463;53.586;9.928;2022-10-30T14:48:37;15.67;;;7.60;;
5612;SDS011;63463;53.586;9.928;2022-10-30T14:51:03;18.00;;;7.70;;
5612;SDS011;63463;53.586;9.928;2022-10-30T14:53:36;13.87;;;7.60;;
5612;SDS011;63463;53.586;9.928;2022-10-30T14:58:34;19.93;;;8.00;;
5612;SDS011;63463;53.586;9.928;2022-10-30T15:03:42;11.33;;;7.10;;
5612;SDS011;63463;53.586;9.928;2022-10-30T15:14:14;20.03;;;9.13;;
5612;SDS011;63463;53.586;9.928;2022-10-30T15:16:42;26.97;;;10.90;;
5612;SDS011;63463;53.586;9.928;2022-10-30T15:19:11;36.50;;;10.30;;
5612;SDS011;63463;53.586;9.928;2022-10-30T15:21:42;28.70;;;9.90;;
5612;SDS011;63463;53.586;9.928;2022-10-30T15:24:13;24.80;;;8.73;;
5612;SDS011;63463;53.586;9.928;2022-10-30T15:26:40;17.70;;;9.47;;
5612;SDS011;63463;53.586;9.928;2022-10-30T15:29:12;30.87;;;10.83;;
5612;SDS011;63463;53.586;9.928;2022-10-30T15:31:42;21.90;;;9.37;;
5612;SDS011;63463;53.586;9.928;2022-10-30T15:34:30;23.53;;;9.50;;
5612;SDS011;63463;53.586;9.928;2022-10-30T15:36:54;27.37;;;11.03;;
5612;SDS011;63463;53.586;9.928;2022-10-30T15:39:20;21.50;;;10.70;;
5612;SDS011;63463;53.586;9.928;2022-10-30T15:41:51;22.13;;;9.70;;
5612;SDS011;63463;53.586;9.928;2022-10-30T15:44:39;21.47;;;10.77;;
5612;SDS011;63463;53.586;9.928;2022-10-30T15:47:12;22.40;;;11.60;;
5612;SDS011;63463;53.586;9.928;2022-10-30T15:49:39;26.90;;;11.80;;
5612;SDS011;63463;53.586;9.928;2022-10-30T15:54:44;27.43;;;13.10;;
5612;SDS011;63463;53.586;9.928;2022-10-30T15:57:16;33.63;;;12.70;;
5612;SDS011;63463;53.586;9.928;2022-10-30T15:59:47;20.77;;;10.40;;
5612;SDS011;63463;53.586;9.928;2022-10-30T16:02:19;21.10;;;10.87;;
5612;SDS011;63463;53.586;9.928;2022-10-30T16:04:46;29.67;;;11.70;;
5612;SDS011;63463;53.586;9.928;2022-10-30T16:07:16;26.40;;;11.60;;
5612;SDS011;63463;53.586;9.928;2022-10-30T16:09:50;22.93;;;10.40;;
5612;SDS011;63463;53.586;9.928;2022-10-30T16:12:17;20.03;;;10.53;;
5612;SDS011;63463;53.586;9.928;2022-10-30T16:14:43;28.27;;;12.20;;
5612;SDS011;63463;53.586;9.928;2022-10-30T16:17:09;37.00;;;13.73;;
5612;SDS011;63463;53.586;9.928;2022-10-30T16:19:44;22.97;;;12.83;;
5612;SDS011;63463;53.586;9.928;2022-10-30T16:22:13;24.07;;;11.60;;
5612;SDS011;63463;53.586;9.928;2022-10-30T16:24:39;29.73;;;13.60;;
5612;SDS011;63463;53.586;9.928;2022-10-30T16:27:12;31.23;;;17.47;;
5612;SDS011;63463;53.586;9.928;2022-10-30T16:29:38;36.57;;;16.03;;
5612;SDS011;63463;53.586;9.928;2022-10-30T16:32:07;34.63;;;17.90;;
5612;SDS011;63463;53.586;9.928;2022-10-30T16:34:35;30.47;;;17.03;;
5612;SDS011;63463;53.586;9.928;2022-10-30T16:37:03;31.37;;;15.93;;
5612;SDS011;63463;53.586;9.928;2022-10-30T16:39:32;63.80;;;26.30;;
5612;SDS011;63463;53.586;9.928;2022-10-30T16:41:59;48.07;;;24.20;;
5612;SDS011;63463;53.586;9.928;2022-10-30T16:44:34;49.83;;;24.10;;
5612;SDS011;63463;53.586;9.928;2022-10-30T16:49:57;48.03;;;24.23;;
5612;SDS011;63463;53.586;9.928;2022-10-30T16:52:28;58.13;;;23.33;;
5612;SDS011;63463;53.586;9.928;2022-10-30T16:54:59;48.57;;;23.63;;
5612;SDS011;63463;53.586;9.928;2022-10-30T16:57:27;45.27;;;22.00;;
5612;SDS011;63463;53.586;9.928;2022-10-30T16:59:54;44.10;;;21.30;;
5612;SDS011;63463;53.586;9.928;2022-10-30T17:02:21;60.17;;;20.40;;
5612;SDS011;63463;53.586;9.928;2022-10-30T17:04:52;44.77;;;21.50;;
5612;SDS011;63463;53.586;9.928;2022-10-30T17:07:19;50.03;;;21.50;;
5612;SDS011;63463;53.586;9.928;2022-10-30T17:09:46;55.93;;;21.70;;
5612;SDS011;63463;53.586;9.928;2022-10-30T17:14:43;38.63;;;20.20;;
5612;SDS011;63463;53.586;9.928;2022-10-30T17:17:21;63.77;;;26.57;;
5612;SDS011;63463;53.586;9.928;2022-10-30T17:19:48;58.83;;;26.03;;
5612;SDS011;63463;53.586;9.928;2022-10-30T17:22:19;46.97;;;24.93;;
5612;SDS011;63463;53.586;9.928;2022-10-30T17:24:45;55.93;;;24.80;;
5612;SDS011;63463;53.586;9.928;2022-10-30T17:27:24;45.77;;;22.97;;
5612;SDS011;63463;53.586;9.928;2022-10-30T17:29:52;44.40;;;22.17;;
5612;SDS011;63463;53.586;9.928;2022-10-30T17:32:22;50.20;;;22.93;;